Time;durP1;ratioP1;P1;durP2;ratioP2;P2;SDS_P1;SDS_P2;PMS_P1;PMS_P2;Temp;Humidity;BMP_temperature;BMP_pressure;BME280_temperature;BME280_humidity;BME280_pressure;Samples;Min_cycle;Max_cycle;Signal;HPM_P1;HPM_P2
2021/12/01 00:02:12;;;;;;;15.20;7.13;;;;;;;;;;5097043;28;20028;-74
2021/12/01 00:04:38;;;;;;;15.90;7.80;;;;;;;;;;5091886;28;20027;-74
2021/12/01 00:07:06;;;;;;;11.73;7.28;;;;;;;;;;5089884;28;20216;-74
2021/12/01 00:09:31;;;;;;;12.25;6.88;;;;;;;;;;5089635;28;20258;-74
2021/12/01 00:11:57;;;;;;;12.80;7.00;;;;;;;;;;5092109;28;20021;-76
2021/12/01 00:14:22;;;;;;;12.20;6.38;;;;;;;;;;5083778;28;20024;-73
2021/12/01 00:16:48;;;;;;;12.50;6.82;;;;;;;;;;5090305;28;20015;-74
2021/12/01 00:19:13;;;;;;;10.52;5.85;;;;;;;;;;5084946;28;20058;-74
2021/12/01 00:21:38;;;;;;;13.43;6.32;;;;;;;;;;5083559;28;20115;-74
2021/12/01 00:24:04;;;;;;;11.10;5.25;;;;;;;;;;5097683;28;20031;-75
2021/12/01 00:26:29;;;;;;;10.20;5.57;;;;;;;;;;5102645;28;20027;-75
2021/12/01 00:28:55;;;;;;;12.18;5.68;;;;;;;;;;5083574;28;20078;-74
2021/12/01 00:31:20;;;;;;;10.40;5.68;;;;;;;;;;5082753;28;20020;-74
2021/12/01 00:33:45;;;;;;;12.82;5.28;;;;;;;;;;5082002;28;20029;-74
2021/12/01 00:36:13;;;;;;;12.15;5.72;;;;;;;;;;5095842;28;20051;-74
2021/12/01 00:38:41;;;;;;;12.95;5.55;;;;;;;;;;5102059;28;20477;-75
2021/12/01 00:41:07;;;;;;;10.02;5.45;;;;;;;;;;5094424;28;20025;-75
2021/12/01 00:43:35;;;;;;;9.40;4.40;;;;;;;;;;5082044;28;20031;-74
2021/12/01 00:46:11;;;;;;;8.13;4.43;;;;;;;;;;5096290;28;20335;-75
2021/12/01 00:48:37;;;;;;;;;;;;;;;;;;5103703;28;20048;-75
2021/12/01 00:51:02;;;;;;;10.70;5.57;;;;;;;;;;5103504;28;20100;-75
2021/12/01 00:53:28;;;;;;;9.25;5.38;;;;;;;;;;5103650;28;20087;-75
2021/12/01 00:55:54;;;;;;;11.70;5.90;;;;;;;;;;5102992;28;20020;-75
2021/12/01 00:58:19;;;;;;;12.52;5.93;;;;;;;;;;5089268;28;20032;-74
2021/12/01 01:00:48;;;;;;;7.70;4.18;;;;;;;;;;5081706;28;20024;-75
2021/12/01 01:03:15;;;;;;;9.73;5.43;;;;;;;;;;5083328;28;20032;-74
2021/12/01 01:05:40;;;;;;;10.27;5.15;;;;;;;;;;5082786;28;20088;-75
2021/12/01 01:08:06;;;;;;;10.18;5.38;;;;;;;;;;5081799;28;20032;-74
2021/12/01 01:10:56;;;;;;;9.32;5.30;;;;;;;;;;5082746;28;20028;-74
2021/12/01 01:16:22;;;;;;;10.50;5.20;;;;;;;;;;5083003;28;20440;-76
2021/12/01 01:18:50;;;;;;;10.50;4.55;;;;;;;;;;5082599;28;20024;-75
2021/12/01 01:21:17;;;;;;;11.32;5.38;;;;;;;;;;5098394;28;20039;-73
2021/12/01 01:23:44;;;;;;;10.40;4.88;;;;;;;;;;5102775;28;20031;-74
2021/12/01 01:26:12;;;;;;;9.43;4.90;;;;;;;;;;5102636;28;20061;-74
2021/12/01 01:28:41;;;;;;;8.00;4.20;;;;;;;;;;5102888;28;20027;-75
2021/12/01 01:31:07;;;;;;;12.80;4.97;;;;;;;;;;5102743;28;20020;-76
2021/12/01 01:33:33;;;;;;;8.15;4.75;;;;;;;;;;5101599;28;20303;-75
2021/12/01 01:35:58;;;;;;;7.70;4.35;;;;;;;;;;5089961;28;20023;-74
2021/12/01 01:38:24;;;;;;;7.72;3.80;;;;;;;;;;5102506;28;20020;-74
2021/12/01 01:40:49;;;;;;;8.80;4.95;;;;;;;;;;5086757;28;20031;-75
2021/12/01 01:43:15;;;;;;;9.43;4.95;;;;;;;;;;5082328;28;20407;-74
2021/12/01 01:45:41;;;;;;;5.70;3.78;;;;;;;;;;5081976;28;20040;-74
2021/12/01 01:48:13;;;;;;;8.50;4.80;;;;;;;;;;5080946;28;20036;-74
2021/12/01 01:50:41;;;;;;;11.73;5.47;;;;;;;;;;5081907;28;20032;-76
2021/12/01 01:53:11;;;;;;;7.53;3.55;;;;;;;;;;5097160;28;20023;-76
2021/12/01 01:55:39;;;;;;;11.75;4.95;;;;;;;;;;5102378;28;20030;-74
2021/12/01 01:58:05;;;;;;;8.90;4.07;;;;;;;;;;5101360;28;20090;-75
2021/12/01 02:00:35;;;;;;;9.98;5.00;;;;;;;;;;5102170;28;20027;-74
2021/12/01 02:03:00;;;;;;;7.97;5.13;;;;;;;;;;5102109;28;20031;-75
2021/12/01 02:05:26;;;;;;;8.98;5.00;;;;;;;;;;5101739;28;20099;-75
2021/12/01 02:07:53;;;;;;;11.23;5.05;;;;;;;;;;5100964;28;20032;-74
2021/12/01 02:10:19;;;;;;;11.60;5.18;;;;;;;;;;5101607;28;20027;-76
2021/12/01 02:12:44;;;;;;;11.25;4.72;;;;;;;;;;5100354;28;20016;-74
2021/12/01 02:15:10;;;;;;;11.38;4.90;;;;;;;;;;5100749;28;20020;-75
2021/12/01 02:17:36;;;;;;;10.38;4.78;;;;;;;;;;5101866;28;20124;-76
2021/12/01 02:20:16;;;;;;;11.45;4.78;;;;;;;;;;5101578;28;20032;-75
2021/12/01 02:22:41;;;;;;;8.80;4.28;;;;;;;;;;5101443;28;20091;-76
2021/12/01 02:25:07;;;;;;;13.23;5.05;;;;;;;;;;5101355;28;20210;-75
2021/12/01 02:27:32;;;;;;;9.25;5.00;;;;;;;;;;5100540;28;20189;-74
2021/12/01 02:29:57;;;;;;;12.18;5.13;;;;;;;;;;5100224;28;20020;-75
2021/12/01 02:32:23;;;;;;;9.65;5.30;;;;;;;;;;5098958;28;20027;-75
2021/12/01 02:34:48;;;;;;;9.30;4.85;;;;;;;;;;5098537;28;20024;-76
2021/12/01 02:37:14;;;;;;;11.75;5.20;;;;;;;;;;5089886;28;20078;-77
2021/12/01 02:39:39;;;;;;;7.93;4.43;;;;;;;;;;5093894;28;20069;-75
2021/12/01 02:42:06;;;;;;;13.68;5.15;;;;;;;;;;5100666;28;20031;-75
2021/12/01 02:44:32;;;;;;;7.15;4.63;;;;;;;;;;5081002;28;20021;-74
2021/12/01 02:47:00;;;;;;;10.48;4.80;;;;;;;;;;5080675;28;20063;-75
2021/12/01 02:49:25;;;;;;;9.27;4.35;;;;;;;;;;5089670;28;20081;-75
2021/12/01 02:51:56;;;;;;;9.48;4.60;;;;;;;;;;5081040;28;20028;-73
2021/12/01 02:54:23;;;;;;;11.90;4.50;;;;;;;;;;5080804;28;20088;-76
2021/12/01 02:56:51;;;;;;;7.85;4.40;;;;;;;;;;5083317;28;20035;-75
2021/12/01 02:59:16;;;;;;;8.27;4.40;;;;;;;;;;5090971;28;20309;-74
2021/12/01 03:01:44;;;;;;;11.25;4.88;;;;;;;;;;5099729;28;20066;-76
2021/12/01 03:04:10;;;;;;;7.88;4.28;;;;;;;;;;5084015;28;20070;-76
2021/12/01 03:06:36;;;;;;;7.90;4.38;;;;;;;;;;5080828;28;20088;-77
2021/12/01 03:09:05;;;;;;;9.48;4.70;;;;;;;;;;5090039;28;20031;-76
2021/12/01 03:11:34;;;;;;;7.15;4.18;;;;;;;;;;5080722;28;20028;-76
2021/12/01 03:13:59;;;;;;;8.73;4.35;;;;;;;;;;5100184;28;20295;-76
2021/12/01 03:16:25;;;;;;;14.57;4.90;;;;;;;;;;5100900;28;20020;-75
2021/12/01 03:18:51;;;;;;;12.07;4.70;;;;;;;;;;5092594;28;20074;-76
2021/12/01 03:21:17;;;;;;;8.10;4.50;;;;;;;;;;5080783;28;20059;-74
2021/12/01 03:23:43;;;;;;;8.00;4.70;;;;;;;;;;5088278;28;20024;-75
2021/12/01 03:26:09;;;;;;;8.52;4.38;;;;;;;;;;5090837;28;20210;-76
2021/12/01 03:28:36;;;;;;;7.25;4.00;;;;;;;;;;5099371;28;20323;-76
2021/12/01 03:31:01;;;;;;;10.32;4.57;;;;;;;;;;5080574;28;20309;-75
2021/12/01 03:33:27;;;;;;;6.97;4.70;;;;;;;;;;5091522;28;20065;-74
2021/12/01 03:35:53;;;;;;;8.25;4.80;;;;;;;;;;5100741;28;20200;-75
2021/12/01 03:38:22;;;;;;;6.93;3.88;;;;;;;;;;5091439;28;20032;-75
2021/12/01 03:40:48;;;;;;;10.05;5.05;;;;;;;;;;5080262;28;20091;-74
2021/12/01 03:43:13;;;;;;;9.63;5.25;;;;;;;;;;5085822;28;20020;-77
2021/12/01 03:45:40;;;;;;;10.32;5.40;;;;;;;;;;5098568;28;20035;-75
2021/12/01 03:48:05;;;;;;;8.88;5.30;;;;;;;;;;5083382;28;20476;-74
2021/12/01 03:50:30;;;;;;;9.50;5.35;;;;;;;;;;5099521;28;20032;-74
2021/12/01 03:52:56;;;;;;;7.95;4.38;;;;;;;;;;5100695;28;20350;-74
2021/12/01 03:55:22;;;;;;;8.52;5.28;;;;;;;;;;5082947;28;20021;-76
2021/12/01 03:57:47;;;;;;;10.07;5.20;;;;;;;;;;5090284;28;20119;-74
2021/12/01 04:00:15;;;;;;;10.25;5.00;;;;;;;;;;5086494;28;20020;-75
2021/12/01 04:02:42;;;;;;;7.95;4.85;;;;;;;;;;5094963;28;20065;-73
2021/12/01 04:05:09;;;;;;;8.27;4.78;;;;;;;;;;5087663;28;20027;-73
2021/12/01 04:07:34;;;;;;;10.35;5.25;;;;;;;;;;5083985;28;20036;-73
2021/12/01 04:10:00;;;;;;;6.97;4.45;;;;;;;;;;5083554;28;20020;-74
2021/12/01 04:12:27;;;;;;;8.20;4.97;;;;;;;;;;5083826;28;20039;-74
2021/12/01 04:14:52;;;;;;;8.68;5.20;;;;;;;;;;5097105;28;20020;-74
2021/12/01 04:17:17;;;;;;;10.68;5.25;;;;;;;;;;5104265;28;20063;-73
2021/12/01 04:19:43;;;;;;;9.70;5.18;;;;;;;;;;5104099;28;20410;-73
2021/12/01 04:22:09;;;;;;;7.10;4.50;;;;;;;;;;5102192;28;20047;-75
2021/12/01 04:24:34;;;;;;;9.13;4.30;;;;;;;;;;5093408;28;20058;-74
2021/12/01 04:27:00;;;;;;;6.80;4.43;;;;;;;;;;5083437;28;20021;-74
2021/12/01 04:29:26;;;;;;;8.35;4.53;;;;;;;;;;5083561;28;20312;-77
2021/12/01 04:31:51;;;;;;;4.05;2.78;;;;;;;;;;5085176;28;20028;-74
2021/12/01 04:34:20;;;;;;;7.45;3.90;;;;;;;;;;5096963;28;20180;-75
2021/12/01 04:36:47;;;;;;;6.07;3.83;;;;;;;;;;5103802;28;20340;-76
2021/12/01 04:39:14;;;;;;;5.22;3.33;;;;;;;;;;5103611;28;20016;-76
2021/12/01 04:41:49;;;;;;;6.90;3.80;;;;;;;;;;5103569;28;20039;-76
2021/12/01 04:44:15;;;;;;;3.95;2.35;;;;;;;;;;5103160;28;20050;-76
2021/12/01 04:46:46;;;;;;;4.90;3.10;;;;;;;;;;5101195;28;20028;-77
2021/12/01 04:49:14;;;;;;;3.38;2.13;;;;;;;;;;5093178;28;20021;-78
2021/12/01 04:51:43;;;;;;;3.63;1.70;;;;;;;;;;5094987;28;20081;-78
2021/12/01 04:54:08;;;;;;;4.18;2.45;;;;;;;;;;5101012;28;20222;-78
2021/12/01 04:56:34;;;;;;;2.50;1.70;;;;;;;;;;5088268;28;20056;-78
2021/12/01 04:58:59;;;;;;;3.83;2.50;;;;;;;;;;5083149;28;20074;-78
2021/12/01 05:01:24;;;;;;;4.07;2.17;;;;;;;;;;5093032;28;20054;-78
2021/12/01 05:03:50;;;;;;;4.03;2.38;;;;;;;;;;5098919;28;20061;-77
2021/12/01 05:06:16;;;;;;;3.63;2.08;;;;;;;;;;5083144;28;20047;-77
2021/12/01 05:08:42;;;;;;;3.35;2.15;;;;;;;;;;5087450;28;20435;-77
2021/12/01 05:11:08;;;;;;;3.28;2.20;;;;;;;;;;5082719;28;20343;-77
2021/12/01 05:13:33;;;;;;;3.50;2.10;;;;;;;;;;5084017;28;20028;-78
2021/12/01 05:15:58;;;;;;;3.72;2.33;;;;;;;;;;5092067;28;20022;-77
2021/12/01 05:18:24;;;;;;;4.07;1.95;;;;;;;;;;5101521;28;20247;-76
2021/12/01 05:20:49;;;;;;;3.40;2.10;;;;;;;;;;5082650;28;20031;-77
2021/12/01 05:23:15;;;;;;;3.13;2.03;;;;;;;;;;5082556;28;20437;-76
2021/12/01 05:25:45;;;;;;;3.80;1.90;;;;;;;;;;5097094;28;20079;-77
2021/12/01 05:28:11;;;;;;;2.90;1.73;;;;;;;;;;5083742;28;20048;-77
2021/12/01 05:30:36;;;;;;;3.78;1.90;;;;;;;;;;5102262;28;20216;-76
2021/12/01 05:33:06;;;;;;;4.28;1.67;;;;;;;;;;5094360;28;20095;-77
2021/12/01 05:35:33;;;;;;;3.28;2.00;;;;;;;;;;5093154;28;20040;-77
2021/12/01 05:37:58;;;;;;;3.58;2.33;;;;;;;;;;5099782;28;20047;-77
2021/12/01 05:40:24;;;;;;;4.55;1.85;;;;;;;;;;5102555;28;20027;-80
2021/12/01 05:42:49;;;;;;;3.00;1.98;;;;;;;;;;5088308;28;20031;-78
2021/12/01 05:45:15;;;;;;;4.13;2.03;;;;;;;;;;5097210;28;20099;-78
2021/12/01 05:47:40;;;;;;;3.28;1.95;;;;;;;;;;5096985;28;20315;-77
2021/12/01 05:50:09;;;;;;;2.70;1.77;;;;;;;;;;5096826;28;20097;-77
2021/12/01 05:52:34;;;;;;;3.13;1.98;;;;;;;;;;5093380;28;20047;-77
2021/12/01 05:55:00;;;;;;;3.42;2.10;;;;;;;;;;5096780;28;20025;-76
2021/12/01 05:57:25;;;;;;;4.95;2.38;;;;;;;;;;5092298;28;20068;-77
2021/12/01 05:59:51;;;;;;;3.15;2.00;;;;;;;;;;5088142;28;20125;-77
2021/12/01 06:02:16;;;;;;;4.65;2.33;;;;;;;;;;5098340;28;20019;-78
2021/12/01 06:04:42;;;;;;;2.90;1.67;;;;;;;;;;5095096;28;20031;-77
2021/12/01 06:07:07;;;;;;;4.35;2.00;;;;;;;;;;5101234;28;20289;-77
2021/12/01 06:09:33;;;;;;;2.47;1.77;;;;;;;;;;5092007;28;20024;-78
2021/12/01 06:11:59;;;;;;;3.10;1.80;;;;;;;;;;5086778;28;20021;-78
2021/12/01 06:14:24;;;;;;;3.00;2.00;;;;;;;;;;5092433;28;20025;-77
2021/12/01 06:16:50;;;;;;;3.67;1.70;;;;;;;;;;5084181;28;20024;-78
2021/12/01 06:19:15;;;;;;;4.75;1.90;;;;;;;;;;5101693;28;20065;-78
2021/12/01 06:21:41;;;;;;;3.20;1.55;;;;;;;;;;5101093;28;20067;-78
2021/12/01 06:24:07;;;;;;;2.50;1.60;;;;;;;;;;5095124;28;20082;-78
2021/12/01 06:26:32;;;;;;;3.92;2.60;;;;;;;;;;5096542;28;20054;-78
2021/12/01 06:28:58;;;;;;;2.53;1.60;;;;;;;;;;5093124;28;20058;-79
2021/12/01 06:31:23;;;;;;;2.92;1.50;;;;;;;;;;5101028;28;20177;-78
2021/12/01 06:33:48;;;;;;;3.28;1.50;;;;;;;;;;5091329;28;20020;-78
2021/12/01 06:36:14;;;;;;;2.40;1.50;;;;;;;;;;5092980;28;20024;-76
2021/12/01 06:38:41;;;;;;;2.13;1.38;;;;;;;;;;5079934;28;20059;-77
2021/12/01 06:41:08;;;;;;;2.83;1.40;;;;;;;;;;5090237;28;20020;-77
2021/12/01 06:43:34;;;;;;;2.50;1.42;;;;;;;;;;5084790;28;20025;-78
2021/12/01 06:46:00;;;;;;;3.45;1.58;;;;;;;;;;5086430;28;20016;-77
2021/12/01 06:48:25;;;;;;;1.98;1.35;;;;;;;;;;5098494;28;20427;-76
2021/12/01 06:50:51;;;;;;;2.80;1.30;;;;;;;;;;5098712;28;20031;-79
2021/12/01 06:53:16;;;;;;;6.22;1.50;;;;;;;;;;5100522;28;20083;-77
2021/12/01 06:55:42;;;;;;;2.90;1.23;;;;;;;;;;5094711;28;20032;-77
2021/12/01 06:58:07;;;;;;;2.10;1.30;;;;;;;;;;5082128;28;20016;-77
2021/12/01 07:00:33;;;;;;;2.30;1.25;;;;;;;;;;5084186;28;20436;-78
2021/12/01 07:02:59;;;;;;;2.78;1.40;;;;;;;;;;5097765;28;20205;-78
2021/12/01 07:05:24;;;;;;;2.40;1.30;;;;;;;;;;5091472;28;20035;-78
2021/12/01 07:07:50;;;;;;;2.58;1.30;;;;;;;;;;5090420;28;20073;-77
2021/12/01 07:10:15;;;;;;;2.97;1.50;;;;;;;;;;5099323;28;20043;-77
2021/12/01 07:12:42;;;;;;;3.20;1.40;;;;;;;;;;5099615;28;20028;-77
2021/12/01 07:15:09;;;;;;;2.45;1.23;;;;;;;;;;5082788;28;20112;-76
2021/12/01 07:17:34;;;;;;;2.28;1.33;;;;;;;;;;5092337;28;20036;-76
2021/12/01 07:20:00;;;;;;;3.20;1.50;;;;;;;;;;5078510;28;20096;-78
2021/12/01 07:22:25;;;;;;;2.00;1.30;;;;;;;;;;5096428;28;20048;-77
2021/12/01 07:24:50;;;;;;;2.15;1.20;;;;;;;;;;5086458;28;20029;-78
2021/12/01 07:27:16;;;;;;;1.95;1.10;;;;;;;;;;5090680;28;20036;-76
2021/12/01 07:29:43;;;;;;;2.97;1.23;;;;;;;;;;5089676;28;20025;-77
2021/12/01 07:32:09;;;;;;;2.72;1.15;;;;;;;;;;5080384;28;20047;-78
2021/12/01 07:34:41;;;;;;;2.00;1.10;;;;;;;;;;5096191;28;20038;-77
2021/12/01 07:37:15;;;;;;;1.83;0.98;;;;;;;;;;5104570;28;20414;-78
2021/12/01 07:39:41;;;;;;;1.90;1.10;;;;;;;;;;5104868;28;20027;-77
2021/12/01 07:42:07;;;;;;;1.70;1.00;;;;;;;;;;5104782;28;20020;-77
2021/12/01 07:44:32;;;;;;;3.53;1.50;;;;;;;;;;5104556;28;20032;-77
2021/12/01 07:46:58;;;;;;;2.20;1.15;;;;;;;;;;5095472;28;20028;-76
2021/12/01 07:49:24;;;;;;;2.65;1.20;;;;;;;;;;5093292;28;20020;-78
2021/12/01 07:51:50;;;;;;;1.85;1.10;;;;;;;;;;5104584;28;20201;-78
2021/12/01 07:54:16;;;;;;;1.65;1.00;;;;;;;;;;5088461;28;20078;-78
2021/12/01 07:56:41;;;;;;;2.50;1.10;;;;;;;;;;5082911;28;20429;-78
2021/12/01 07:59:07;;;;;;;3.08;1.80;;;;;;;;;;5085480;28;20029;-77
2021/12/01 08:01:32;;;;;;;3.30;1.30;;;;;;;;;;5081838;28;20085;-76
2021/12/01 08:03:58;;;;;;;2.20;1.30;;;;;;;;;;5091113;28;20035;-78
2021/12/01 08:06:23;;;;;;;4.03;1.20;;;;;;;;;;5092055;28;20039;-77
2021/12/01 08:08:49;;;;;;;4.75;1.70;;;;;;;;;;5099197;28;20032;-78
2021/12/01 08:11:15;;;;;;;2.40;1.25;;;;;;;;;;5094501;28;20078;-77
2021/12/01 08:13:41;;;;;;;3.05;1.10;;;;;;;;;;5091317;28;20028;-77
2021/12/01 08:16:06;;;;;;;2.78;1.20;;;;;;;;;;5083824;28;20047;-78
2021/12/01 08:18:32;;;;;;;2.97;1.48;;;;;;;;;;5082954;28;20028;-78
2021/12/01 08:20:58;;;;;;;3.38;1.10;;;;;;;;;;5083806;28;20032;-77
2021/12/01 08:23:23;;;;;;;2.72;1.50;;;;;;;;;;5082650;28;20064;-77
2021/12/01 08:25:49;;;;;;;2.35;1.23;;;;;;;;;;5083249;28;20026;-78
2021/12/01 08:28:14;;;;;;;2.35;1.40;;;;;;;;;;5083733;28;20355;-76
2021/12/01 08:30:39;;;;;;;2.42;1.23;;;;;;;;;;5083735;28;20012;-77
2021/12/01 08:33:05;;;;;;;6.07;1.20;;;;;;;;;;5083638;28;20020;-78
2021/12/01 08:35:31;;;;;;;3.17;1.10;;;;;;;;;;5083503;28;20028;-78
2021/12/01 08:37:56;;;;;;;2.13;1.15;;;;;;;;;;5083637;28;20024;-77
2021/12/01 08:40:22;;;;;;;3.58;1.25;;;;;;;;;;5083058;28;20036;-75
2021/12/01 08:42:47;;;;;;;3.25;1.20;;;;;;;;;;5083409;28;20404;-74
2021/12/01 08:45:14;;;;;;;3.13;1.20;;;;;;;;;;5083378;28;20236;-75
2021/12/01 08:47:39;;;;;;;3.47;1.33;;;;;;;;;;5082484;28;20027;-75
2021/12/01 08:50:08;;;;;;;2.03;1.10;;;;;;;;;;5083251;28;20025;-75
2021/12/01 08:52:33;;;;;;;2.67;1.02;;;;;;;;;;5083218;28;20304;-75
2021/12/01 08:54:59;;;;;;;2.10;1.00;;;;;;;;;;5083144;28;20051;-76
2021/12/01 08:57:24;;;;;;;3.05;1.10;;;;;;;;;;5082835;28;20028;-75
2021/12/01 08:59:50;;;;;;;2.67;1.30;;;;;;;;;;5082010;28;20036;-75
2021/12/01 09:02:16;;;;;;;2.67;1.10;;;;;;;;;;5083300;28;20107;-75
2021/12/01 09:04:48;;;;;;;2.97;1.20;;;;;;;;;;5083005;28;20025;-75
2021/12/01 09:07:13;;;;;;;3.05;1.27;;;;;;;;;;5084215;28;20092;-76
2021/12/01 09:09:38;;;;;;;6.30;1.13;;;;;;;;;;5102067;28;20047;-77
2021/12/01 09:12:05;;;;;;;3.45;1.27;;;;;;;;;;5086506;28;20027;-78
2021/12/01 09:14:30;;;;;;;1.90;1.10;;;;;;;;;;5082703;28;20426;-78
2021/12/01 09:16:56;;;;;;;3.13;1.20;;;;;;;;;;5082706;28;20093;-78
2021/12/01 09:19:23;;;;;;;4.60;1.17;;;;;;;;;;5081193;28;20052;-77
2021/12/01 09:21:49;;;;;;;4.82;1.40;;;;;;;;;;5082256;28;20036;-77
2021/12/01 09:24:15;;;;;;;2.72;1.40;;;;;;;;;;5082479;28;20490;-77
2021/12/01 09:26:42;;;;;;;3.72;1.40;;;;;;;;;;5082037;28;20034;-78
2021/12/01 09:29:08;;;;;;;3.28;1.20;;;;;;;;;;5082359;28;20032;-78
2021/12/01 09:31:33;;;;;;;3.20;1.08;;;;;;;;;;5080441;28;20062;-78
2021/12/01 09:33:59;;;;;;;3.05;1.10;;;;;;;;;;5080328;28;20308;-78
2021/12/01 09:36:24;;;;;;;2.95;1.20;;;;;;;;;;5082066;28;20029;-78
2021/12/01 09:38:50;;;;;;;2.88;1.00;;;;;;;;;;5081591;28;20082;-78
2021/12/01 09:41:16;;;;;;;4.82;1.23;;;;;;;;;;5080925;28;20025;-77
2021/12/01 09:43:42;;;;;;;2.83;1.00;;;;;;;;;;5081545;28;20087;-79
2021/12/01 09:46:09;;;;;;;6.40;1.20;;;;;;;;;;5081655;28;20062;-78
2021/12/01 09:48:36;;;;;;;2.90;1.00;;;;;;;;;;5079907;28;20240;-78
2021/12/01 09:51:02;;;;;;;3.70;1.05;;;;;;;;;;5081545;28;20071;-77
2021/12/01 09:53:28;;;;;;;4.05;1.00;;;;;;;;;;5081400;28;20328;-78
2021/12/01 09:55:53;;;;;;;3.00;0.90;;;;;;;;;;5080721;28;20066;-77
2021/12/01 09:58:25;;;;;;;6.72;0.95;;;;;;;;;;5081363;28;20020;-78
2021/12/01 10:00:54;;;;;;;4.15;1.00;;;;;;;;;;5098899;28;20024;-78
2021/12/01 10:03:20;;;;;;;3.53;0.93;;;;;;;;;;5101187;28;20058;-78
2021/12/01 10:05:46;;;;;;;6.68;1.40;;;;;;;;;;5100997;28;20020;-78
2021/12/01 10:08:17;;;;;;;2.45;1.00;;;;;;;;;;5101242;28;20038;-78
2021/12/01 10:10:43;;;;;;;4.22;1.02;;;;;;;;;;5100249;28;20032;-78
2021/12/01 10:13:08;;;;;;;4.15;1.10;;;;;;;;;;5101277;28;20027;-79
2021/12/01 10:15:34;;;;;;;3.20;1.10;;;;;;;;;;5101053;28;20028;-78
2021/12/01 10:18:14;;;;;;;7.25;1.73;;;;;;;;;;5101053;28;20027;-79
2021/12/01 10:20:40;;;;;;;3.10;1.10;;;;;;;;;;5101598;28;20137;-78
2021/12/01 10:23:11;;;;;;;4.13;1.13;;;;;;;;;;5101307;28;20048;-78
2021/12/01 10:25:37;;;;;;;3.45;1.10;;;;;;;;;;5101589;28;20023;-78
2021/12/01 10:28:03;;;;;;;3.38;1.02;;;;;;;;;;5101409;28;20030;-78
2021/12/01 10:30:42;;;;;;;4.25;1.00;;;;;;;;;;5101578;28;20039;-78
2021/12/01 10:33:09;;;;;;;3.15;1.00;;;;;;;;;;5100510;28;20031;-79
2021/12/01 10:35:36;;;;;;;4.93;1.38;;;;;;;;;;5101382;28;20369;-79
2021/12/01 10:38:02;;;;;;;4.72;1.00;;;;;;;;;;5101407;28;20024;-78
2021/12/01 10:40:28;;;;;;;3.83;1.42;;;;;;;;;;5100948;28;20114;-78
2021/12/01 10:42:54;;;;;;;2.65;1.02;;;;;;;;;;5101206;28;20262;-79
2021/12/01 10:45:28;;;;;;;3.67;0.90;;;;;;;;;;5099178;28;20034;-77
2021/12/01 10:47:54;;;;;;;5.63;1.20;;;;;;;;;;5100359;28;20089;-77
2021/12/01 10:50:23;;;;;;;2.45;0.90;;;;;;;;;;5099897;28;20038;-78
2021/12/01 10:52:54;;;;;;;3.67;0.90;;;;;;;;;;5079723;28;20047;-78
2021/12/01 10:55:26;;;;;;;5.93;1.15;;;;;;;;;;5079844;28;20029;-79
2021/12/01 10:57:58;;;;;;;4.13;0.90;;;;;;;;;;5080134;28;20035;-79
2021/12/01 11:00:38;;;;;;;3.72;1.17;;;;;;;;;;5079350;28;20108;-80
2021/12/01 11:03:15;;;;;;;1.67;0.85;;;;;;;;;;5080271;28;20075;-79
2021/12/01 11:05:43;;;;;;;1.55;0.90;;;;;;;;;;5080017;28;20324;-78
2021/12/01 11:08:19;;;;;;;3.40;1.10;;;;;;;;;;5079204;28;20100;-80
2021/12/01 11:11:05;;;;;;;3.15;0.82;;;;;;;;;;5079328;28;20411;-80
2021/12/01 11:13:32;;;;;;;4.35;1.10;;;;;;;;;;5095700;28;20391;-81
2021/12/01 11:15:59;;;;;;;5.57;1.20;;;;;;;;;;5099487;28;20031;-79
2021/12/01 11:18:28;;;;;;;2.85;1.25;;;;;;;;;;5100294;28;20098;-80
2021/12/01 11:21:03;;;;;;;4.38;1.10;;;;;;;;;;5100129;28;20016;-79
2021/12/01 11:23:34;;;;;;;4.97;1.48;;;;;;;;;;5099263;28;20074;-79
2021/12/01 11:26:07;;;;;;;4.50;1.00;;;;;;;;;;5086552;28;20059;-78
2021/12/01 11:28:54;;;;;;;5.20;1.20;;;;;;;;;;5080368;28;20032;-79
2021/12/01 11:31:21;;;;;;;6.38;1.30;;;;;;;;;;5080136;28;20040;-79
2021/12/01 11:33:47;;;;;;;8.35;1.80;;;;;;;;;;5081063;28;20043;-83
2021/12/01 11:36:19;;;;;;;6.53;1.42;;;;;;;;;;5087329;28;20349;-79
2021/12/01 11:38:57;;;;;;;3.65;1.30;;;;;;;;;;5087316;28;20029;-79
2021/12/01 11:41:23;;;;;;;5.35;1.55;;;;;;;;;;5080506;28;20036;-79
2021/12/01 11:43:49;;;;;;;9.43;1.95;;;;;;;;;;5098798;28;20213;-79
2021/12/01 11:46:15;;;;;;;4.22;1.55;;;;;;;;;;5100541;28;20044;-80
2021/12/01 11:48:48;;;;;;;6.10;1.48;;;;;;;;;;5100259;28;20032;-79
2021/12/01 11:51:19;;;;;;;3.35;1.27;;;;;;;;;;5100694;28;20024;-81
2021/12/01 11:53:51;;;;;;;4.55;1.38;;;;;;;;;;5097943;28;20312;-80
2021/12/01 11:56:29;;;;;;;7.53;1.50;;;;;;;;;;5080232;28;20044;-80
2021/12/01 11:59:03;;;;;;;5.63;1.20;;;;;;;;;;5080302;28;20336;-78
2021/12/01 12:01:33;;;;;;;6.60;1.33;;;;;;;;;;5080884;28;20021;-78
2021/12/01 12:04:01;;;;;;;3.67;1.25;;;;;;;;;;5080502;28;20028;-80
2021/12/01 12:06:35;;;;;;;4.38;1.30;;;;;;;;;;5080122;28;20036;-79
2021/12/01 12:09:06;;;;;;;14.77;1.50;;;;;;;;;;5080039;28;20417;-79
2021/12/01 12:11:44;;;;;;;2.63;1.10;;;;;;;;;;5093940;28;20231;-76
2021/12/01 12:14:21;;;;;;;8.73;1.20;;;;;;;;;;5095800;28;20087;-79
2021/12/01 12:17:09;;;;;;;7.10;1.10;;;;;;;;;;5082691;28;20022;-80
2021/12/01 12:19:43;;;;;;;4.97;1.00;;;;;;;;;;5079223;28;20020;-80
2021/12/01 12:22:14;;;;;;;7.13;1.55;;;;;;;;;;5078711;28;20048;-78
2021/12/01 12:24:55;;;;;;;3.70;1.10;;;;;;;;;;5085288;28;20343;-79
2021/12/01 12:27:45;;;;;;;4.90;1.20;;;;;;;;;;5094409;28;20028;-79
2021/12/01 12:30:12;;;;;;;4.50;1.30;;;;;;;;;;5085935;28;20051;-80
2021/12/01 12:32:39;;;;;;;5.85;1.20;;;;;;;;;;5102167;28;20095;-78
2021/12/01 12:35:14;;;;;;;6.00;1.33;;;;;;;;;;5086316;28;21354;-79
2021/12/01 12:37:41;;;;;;;7.10;1.38;;;;;;;;;;5101758;28;20028;-79
2021/12/01 12:40:30;;;;;;;6.15;1.10;;;;;;;;;;5096525;28;20306;-78
2021/12/01 12:43:12;;;;;;;5.22;1.23;;;;;;;;;;5095559;28;20022;-78
2021/12/01 12:45:41;;;;;;;4.07;0.90;;;;;;;;;;5086760;28;20087;-79
2021/12/01 12:48:26;;;;;;;4.32;1.10;;;;;;;;;;5084128;28;20038;-78
2021/12/01 12:51:08;;;;;;;4.40;1.20;;;;;;;;;;5094429;28;20311;-78
2021/12/01 12:53:34;;;;;;;4.85;1.20;;;;;;;;;;5103462;28;20016;-78
2021/12/01 12:56:23;;;;;;;6.30;1.15;;;;;;;;;;5082882;28;20105;-78
2021/12/01 12:58:48;;;;;;;3.35;1.00;;;;;;;;;;5091085;28;20043;-78
2021/12/01 13:01:24;;;;;;;4.05;1.00;;;;;;;;;;5083843;28;20080;-77
2021/12/01 13:03:51;;;;;;;4.40;1.67;;;;;;;;;;5087600;28;20336;-78
2021/12/01 13:06:28;;;;;;;3.78;1.02;;;;;;;;;;5089413;28;20028;-78
2021/12/01 13:08:54;;;;;;;9.23;1.50;;;;;;;;;;5100318;28;20054;-78
2021/12/01 13:11:23;;;;;;;5.93;1.20;;;;;;;;;;5100474;28;20339;-78
2021/12/01 13:13:53;;;;;;;5.25;1.20;;;;;;;;;;5087077;28;20042;-77
2021/12/01 13:16:20;;;;;;;5.15;1.40;;;;;;;;;;5100342;28;20114;-78
2021/12/01 13:18:51;;;;;;;4.90;1.13;;;;;;;;;;5098597;28;20061;-77
2021/12/01 13:21:21;;;;;;;1.85;1.00;;;;;;;;;;5079097;28;20028;-78
2021/12/01 13:23:51;;;;;;;2.97;1.10;;;;;;;;;;5095033;28;20032;-78
2021/12/01 13:26:20;;;;;;;3.70;1.10;;;;;;;;;;5101115;28;20055;-78
2021/12/01 13:29:05;;;;;;;4.13;1.40;;;;;;;;;;5092930;28;20044;-77
2021/12/01 13:31:42;;;;;;;3.45;1.30;;;;;;;;;;5090358;28;20020;-76
2021/12/01 13:34:10;;;;;;;2.80;1.10;;;;;;;;;;5082601;28;20317;-77
2021/12/01 13:36:49;;;;;;;4.68;1.15;;;;;;;;;;5084542;28;20024;-77
2021/12/01 13:39:17;;;;;;;4.60;1.40;;;;;;;;;;5096711;28;20027;-77
2021/12/01 13:41:47;;;;;;;4.72;1.13;;;;;;;;;;5092652;28;20028;-78
2021/12/01 13:44:23;;;;;;;3.75;0.95;;;;;;;;;;5081315;28;20024;-76
2021/12/01 13:47:01;;;;;;;4.28;1.40;;;;;;;;;;5082165;28;20021;-76
2021/12/01 13:49:48;;;;;;;5.55;1.25;;;;;;;;;;5082052;28;20032;-77
2021/12/01 13:52:35;;;;;;;5.20;1.20;;;;;;;;;;5082026;28;20080;-77
2021/12/01 13:55:20;;;;;;;4.50;1.35;;;;;;;;;;5081464;28;20024;-76
2021/12/01 13:57:52;;;;;;;2.75;1.10;;;;;;;;;;5080951;28;20305;-76
2021/12/01 14:00:34;;;;;;;5.65;1.30;;;;;;;;;;5087755;28;20058;-77
2021/12/01 14:02:59;;;;;;;3.05;1.00;;;;;;;;;;5086108;28;20024;-76
2021/12/01 14:05:26;;;;;;;7.00;1.23;;;;;;;;;;5081324;28;20229;-77
2021/12/01 14:07:53;;;;;;;2.60;1.00;;;;;;;;;;5080615;28;20085;-77
2021/12/01 14:10:40;;;;;;;4.65;1.08;;;;;;;;;;5080425;28;20021;-77
2021/12/01 14:13:06;;;;;;;2.00;0.88;;;;;;;;;;5080535;28;20055;-77
2021/12/01 14:15:37;;;;;;;3.03;0.88;;;;;;;;;;5081963;28;20032;-76
2021/12/01 14:18:07;;;;;;;5.97;1.10;;;;;;;;;;5081646;28;20028;-77
2021/12/01 14:20:33;;;;;;;4.00;1.20;;;;;;;;;;5081436;28;20312;-78
2021/12/01 14:23:00;;;;;;;3.58;1.10;;;;;;;;;;5080466;28;20040;-77
2021/12/01 14:25:26;;;;;;;3.78;1.10;;;;;;;;;;5080845;28;20031;-77
2021/12/01 14:28:08;;;;;;;2.47;1.10;;;;;;;;;;5081293;28;20028;-77
2021/12/01 14:30:36;;;;;;;9.23;1.33;;;;;;;;;;5080184;28;20088;-77
2021/12/01 14:33:02;;;;;;;6.85;1.40;;;;;;;;;;5080479;28;20020;-77
2021/12/01 14:35:27;;;;;;;3.03;1.20;;;;;;;;;;5091638;28;20046;-78
2021/12/01 14:37:56;;;;;;;2.22;1.17;;;;;;;;;;5099761;28;20027;-77
2021/12/01 14:40:21;;;;;;;4.70;1.20;;;;;;;;;;5098397;28;20026;-77
2021/12/01 14:42:51;;;;;;;4.97;1.45;;;;;;;;;;5099673;28;20012;-76
2021/12/01 14:45:23;;;;;;;5.97;1.10;;;;;;;;;;5098210;28;20220;-77
2021/12/01 14:48:08;;;;;;;6.20;1.38;;;;;;;;;;5098739;28;20270;-77
2021/12/01 14:50:36;;;;;;;7.10;1.63;;;;;;;;;;5100280;28;20058;-76